Time;durP1;ratioP1;P1;durP2;ratioP2;P2;SDS_P1;SDS_P2;PMS_P1;PMS_P2;Temp;Humidity;BMP_temperature;BMP_pressure;BME280_temperature;BME280_humidity;BME280_pressure;Samples;Min_cycle;Max_cycle;Signal;HPM_P1;HPM_P2
2022/09/08 00:02:22;;;;;;;15.27;13.65;;;18.40;99.90;;;;;;5035043;28;20060;-68
2022/09/08 00:04:47;;;;;;;15.07;13.18;;;18.40;99.90;;;;;;5035594;28;20505;-66
2022/09/08 00:07:13;;;;;;;15.35;13.82;;;18.40;99.90;;;;;;5034914;28;20052;-65
2022/09/08 00:09:38;;;;;;;16.05;14.38;;;18.40;99.90;;;;;;5034967;28;20060;-66
2022/09/08 00:12:04;;;;;;;18.38;15.00;;;18.40;99.90;;;;;;5035146;28;20042;-65
2022/09/08 00:14:32;;;;;;;18.30;15.30;;;18.40;99.90;;;;;;5034918;28;20467;-64
2022/09/08 00:16:59;;;;;;;18.13;16.30;;;18.40;99.90;;;;;;5035502;28;20041;-65
2022/09/08 00:19:26;;;;;;;19.35;17.33;;;18.40;99.90;;;;;;5035033;28;20045;-66
2022/09/08 00:21:52;;;;;;;18.33;16.52;;;18.40;99.90;;;;;;5034710;28;20052;-64
2022/09/08 00:24:18;;;;;;;20.85;18.85;;;18.30;99.90;;;;;;5038576;28;20122;-65
2022/09/08 00:26:44;;;;;;;20.73;18.55;;;18.30;99.90;;;;;;5051969;28;20052;-66
2022/09/08 00:29:10;;;;;;;20.40;18.45;;;18.30;99.90;;;;;;5052308;28;20067;-65
2022/09/08 00:31:39;;;;;;;24.10;21.00;;;18.30;99.90;;;;;;5035888;28;20454;-65
2022/09/08 00:34:05;;;;;;;21.27;19.10;;;18.30;99.90;;;;;;5051741;28;20087;-66
2022/09/08 00:36:31;;;;;;;22.00;18.88;;;18.20;99.90;;;;;;5053121;28;20077;-66
2022/09/08 00:38:58;;;;;;;19.98;17.90;;;18.20;99.90;;;;;;5051968;28;20442;-67
2022/09/08 00:41:24;;;;;;;23.30;20.75;;;18.20;99.90;;;;;;5051887;28;20368;-63
2022/09/08 00:44:01;;;;;;;26.27;23.77;;;18.20;99.90;;;;;;5053280;28;20098;-67
2022/09/08 00:46:40;;;;;;;23.65;21.40;;;18.20;99.90;;;;;;5034453;28;20064;-65
2022/09/08 00:49:32;;;;;;;24.58;22.15;;;18.20;99.90;;;;;;5051572;28;20081;-66
2022/09/08 00:51:59;;;;;;;24.38;21.58;;;18.20;99.90;;;;;;5046668;28;20086;-67
2022/09/08 00:54:25;;;;;;;24.88;22.25;;;18.20;99.90;;;;;;5053158;28;20053;-67
2022/09/08 00:56:54;;;;;;;23.48;20.65;;;18.20;99.90;;;;;;5051480;28;20464;-65
2022/09/08 00:59:20;;;;;;;25.45;22.52;;;18.30;99.90;;;;;;5033572;28;20483;-65
2022/09/08 01:01:46;;;;;;;23.65;21.15;;;18.20;99.90;;;;;;5053105;28;20114;-68
2022/09/08 01:04:12;;;;;;;22.85;20.65;;;18.20;99.90;;;;;;5051380;28;20124;-67
2022/09/08 01:12:46;;;;;;;26.08;22.52;;;18.20;99.90;;;;;;5051633;28;20135;-63
2022/09/08 01:15:23;;;;;;;23.10;20.80;;;18.20;99.90;;;;;;5026037;28;20119;-65
2022/09/08 01:17:52;;;;;;;23.88;21.38;;;18.20;99.90;;;;;;5051443;28;20087;-66
2022/09/08 01:20:20;;;;;;;21.73;19.58;;;18.20;99.90;;;;;;5033718;28;20131;-65
2022/09/08 01:23:02;;;;;;;23.42;20.35;;;18.20;99.90;;;;;;5035314;28;20033;-64
2022/09/08 01:25:54;;;;;;;21.10;18.88;;;18.30;99.90;;;;;;5046001;28;20046;-64
2022/09/08 01:28:36;;;;;;;24.55;22.05;;;18.30;99.90;;;;;;5037938;28;20034;-64
2022/09/08 01:31:03;;;;;;;24.77;21.40;;;18.20;99.90;;;;;;5037735;28;20052;-65
2022/09/08 01:33:29;;;;;;;25.83;23.27;;;18.20;99.90;;;;;;5039421;28;20390;-65
2022/09/08 01:35:55;;;;;;;23.55;21.25;;;18.30;99.90;;;;;;5055839;28;20383;-65
2022/09/08 01:38:21;;;;;;;24.17;20.73;;;18.20;99.90;;;;;;5055061;28;20045;-66
2022/09/08 01:40:46;;;;;;;24.52;21.88;;;18.20;99.90;;;;;;5039095;28;20045;-65
2022/09/08 01:43:12;;;;;;;23.65;21.25;;;18.20;99.90;;;;;;5054971;28;20527;-65
2022/09/08 01:45:40;;;;;;;23.10;20.92;;;18.20;99.90;;;;;;5055531;28;20044;-65
2022/09/08 01:48:06;;;;;;;24.13;21.52;;;18.20;99.90;;;;;;5056139;28;20049;-66
2022/09/08 01:50:32;;;;;;;25.17;22.48;;;18.30;99.90;;;;;;5037453;28;20056;-65
2022/09/08 01:52:57;;;;;;;24.13;21.52;;;18.20;99.90;;;;;;5056024;28;20371;-63
2022/09/08 01:55:23;;;;;;;23.98;21.67;;;18.20;99.90;;;;;;5054995;28;20103;-64
2022/09/08 01:57:49;;;;;;;23.48;21.02;;;18.30;99.90;;;;;;5020549;28;20048;-65
2022/09/08 02:00:14;;;;;;;26.27;23.50;;;18.20;99.90;;;;;;5056461;28;20080;-64
2022/09/08 02:02:40;;;;;;;26.08;23.27;;;18.30;99.90;;;;;;5054613;28;20114;-65
2022/09/08 02:05:07;;;;;;;26.02;23.08;;;18.30;99.90;;;;;;5055689;28;20045;-67
2022/09/08 02:07:36;;;;;;;24.27;21.83;;;18.30;99.90;;;;;;5037995;28;20464;-66
2022/09/08 02:10:02;;;;;;;26.15;23.70;;;18.30;99.90;;;;;;5036947;28;20041;-64
2022/09/08 02:12:28;;;;;;;23.80;21.38;;;18.30;99.90;;;;;;5055605;28;20107;-64
2022/09/08 02:14:54;;;;;;;27.80;24.23;;;18.30;99.90;;;;;;5054340;28;20402;-66
2022/09/08 02:17:19;;;;;;;25.48;23.02;;;18.30;99.90;;;;;;5036775;28;20076;-63
2022/09/08 02:19:45;;;;;;;25.30;22.42;;;18.20;99.90;;;;;;5055805;28;20045;-65
2022/09/08 02:22:11;;;;;;;28.58;24.63;;;18.20;99.90;;;;;;5054240;28;20098;-64
2022/09/08 02:24:37;;;;;;;27.38;24.65;;;18.30;99.90;;;;;;5037424;28;20371;-66
2022/09/08 02:27:03;;;;;;;26.35;22.95;;;18.20;99.90;;;;;;5055073;28;20090;-65
2022/09/08 02:29:28;;;;;;;27.02;24.20;;;18.30;99.90;;;;;;5036040;28;20052;-65
2022/09/08 02:31:54;;;;;;;27.45;24.52;;;18.30;99.90;;;;;;5055756;28;20044;-65
2022/09/08 02:34:20;;;;;;;27.15;24.45;;;18.30;99.90;;;;;;5053979;28;20045;-65
2022/09/08 02:36:45;;;;;;;26.25;23.55;;;18.20;99.90;;;;;;5054097;28;20041;-65
2022/09/08 02:39:16;;;;;;;25.27;22.77;;;18.20;99.90;;;;;;5055821;28;20158;-65
2022/09/08 02:41:41;;;;;;;28.42;25.52;;;18.30;99.90;;;;;;5053401;28;20048;-64
2022/09/08 02:44:09;;;;;;;28.38;24.05;;;18.20;99.90;;;;;;5036731;28;20321;-65
2022/09/08 02:46:34;;;;;;;27.92;25.13;;;18.20;99.90;;;;;;5054835;28;20110;-66
2022/09/08 02:49:00;;;;;;;28.60;25.70;;;18.20;99.90;;;;;;5035978;28;20527;-65
2022/09/08 02:51:25;;;;;;;28.63;25.80;;;18.20;99.90;;;;;;5055058;28;20033;-66
2022/09/08 02:53:54;;;;;;;31.13;25.77;;;18.20;99.90;;;;;;5053752;28;20049;-65
2022/09/08 02:56:19;;;;;;;28.27;25.33;;;18.30;99.90;;;;;;5053431;28;20049;-66
2022/09/08 02:58:45;;;;;;;29.40;26.52;;;18.20;99.90;;;;;;5037620;28;20045;-65
2022/09/08 03:01:11;;;;;;;29.33;26.33;;;18.20;99.90;;;;;;5053348;28;20352;-65
2022/09/08 03:03:36;;;;;;;29.40;26.27;;;18.20;99.90;;;;;;5054574;28;20147;-63
2022/09/08 03:06:02;;;;;;;31.45;28.35;;;18.20;99.90;;;;;;5054312;28;20485;-64
2022/09/08 03:08:28;;;;;;;29.02;26.13;;;18.20;99.90;;;;;;5035955;28;20455;-66
2022/09/08 03:10:54;;;;;;;29.25;26.42;;;18.20;99.90;;;;;;5036979;28;20056;-65
2022/09/08 03:13:19;;;;;;;28.17;25.17;;;18.20;99.90;;;;;;5052894;28;20121;-66
2022/09/08 03:15:45;;;;;;;29.75;26.70;;;18.20;99.90;;;;;;5035778;28;20040;-66
2022/09/08 03:18:11;;;;;;;29.63;26.65;;;18.20;99.90;;;;;;5054825;28;20090;-65
2022/09/08 03:20:38;;;;;;;29.85;26.95;;;18.20;99.90;;;;;;5053387;28;20094;-65
2022/09/08 03:23:04;;;;;;;33.88;30.58;;;18.20;99.90;;;;;;5054321;28;20131;-65
2022/09/08 03:25:30;;;;;;;29.55;26.60;;;18.20;99.90;;;;;;5048185;28;20435;-66
2022/09/08 03:27:55;;;;;;;32.88;29.63;;;18.20;99.90;;;;;;5038453;28;20106;-65
2022/09/08 03:30:21;;;;;;;31.40;26.77;;;18.10;99.90;;;;;;5037406;28;20053;-66
2022/09/08 03:32:48;;;;;;;33.05;29.15;;;18.20;99.90;;;;;;5021084;28;20463;-66
2022/09/08 03:35:16;;;;;;;32.30;29.17;;;18.20;99.90;;;;;;5038587;28;20045;-65
2022/09/08 03:37:42;;;;;;;30.15;27.02;;;18.20;99.90;;;;;;5037579;28;20037;-64
2022/09/08 03:40:12;;;;;;;34.28;31.05;;;18.10;99.90;;;;;;5038309;28;20042;-67
2022/09/08 03:42:40;;;;;;;31.98;28.75;;;18.20;99.90;;;;;;5020245;28;20486;-65
2022/09/08 03:45:11;;;;;;;34.40;30.67;;;18.20;99.90;;;;;;5037477;28;20045;-63
2022/09/08 03:47:37;;;;;;;33.80;30.13;;;18.20;99.90;;;;;;5037872;28;20049;-65
2022/09/08 03:50:04;;;;;;;32.78;29.45;;;18.10;99.90;;;;;;5037130;28;20049;-66
2022/09/08 03:52:30;;;;;;;35.80;32.17;;;18.10;99.90;;;;;;5029752;28;20045;-65
2022/09/08 03:54:56;;;;;;;32.40;29.20;;;18.20;99.90;;;;;;5037618;28;20095;-65
2022/09/08 03:57:24;;;;;;;35.17;31.80;;;18.20;99.90;;;;;;5037212;28;20037;-63
2022/09/08 03:59:51;;;;;;;33.45;30.05;;;18.20;99.90;;;;;;5037973;28;20181;-65
2022/09/08 04:02:18;;;;;;;35.97;32.20;;;18.20;99.90;;;;;;5037928;28;20159;-64
2022/09/08 04:04:47;;;;;;;35.17;31.45;;;18.20;99.90;;;;;;5036441;28;20033;-67
2022/09/08 04:07:13;;;;;;;38.05;33.97;;;18.20;99.90;;;;;;5037820;28;20056;-63
2022/09/08 04:09:40;;;;;;;37.97;34.17;;;18.20;99.90;;;;;;5019364;28;20053;-65
2022/09/08 04:12:06;;;;;;;36.03;32.60;;;18.20;99.90;;;;;;5019568;28;20468;-65
2022/09/08 04:14:33;;;;;;;36.78;33.15;;;18.20;99.90;;;;;;5038128;28;20477;-65
2022/09/08 04:16:58;;;;;;;34.35;30.85;;;18.20;99.90;;;;;;5038345;28;20043;-65
2022/09/08 04:19:24;;;;;;;34.75;31.45;;;18.20;99.90;;;;;;5039057;28;20121;-63
2022/09/08 04:21:50;;;;;;;40.28;36.20;;;18.20;99.90;;;;;;5039090;28;20045;-64
2022/09/08 04:24:15;;;;;;;35.53;31.98;;;18.10;99.90;;;;;;5004099;28;20128;-64
2022/09/08 04:26:41;;;;;;;37.67;34.00;;;18.20;99.90;;;;;;5042116;28;20051;-64
2022/09/08 04:29:07;;;;;;;39.58;35.67;;;18.10;99.90;;;;;;5052872;28;20053;-65
2022/09/08 04:31:35;;;;;;;40.97;36.70;;;18.10;99.90;;;;;;5046851;28;20073;-65
2022/09/08 04:34:02;;;;;;;38.65;34.85;;;18.10;99.90;;;;;;5036949;28;20138;-64
2022/09/08 04:36:28;;;;;;;47.05;42.10;;;18.10;99.90;;;;;;5018910;28;20050;-64
2022/09/08 04:38:59;;;;;;;74.25;44.13;;;18.10;99.90;;;;;;5037297;28;20060;-64
2022/09/08 04:41:26;;;;;;;66.65;52.40;;;17.90;99.90;;;;;;5020447;28;20047;-65
2022/09/08 04:43:53;;;;;;;60.67;40.08;;;17.80;99.90;;;;;;5035936;28;20067;-65
2022/09/08 04:46:19;;;;;;;38.80;33.47;;;17.70;99.90;;;;;;5051718;28;20052;-65
2022/09/08 04:48:45;;;;;;;45.17;36.45;;;17.70;99.90;;;;;;5051555;28;20037;-64
2022/09/08 04:51:13;;;;;;;45.92;34.47;;;17.60;99.90;;;;;;5042513;28;20592;-64
2022/09/08 04:53:39;;;;;;;49.85;36.97;;;17.30;99.90;;;;;;5033834;28;20056;-64
2022/09/08 04:56:07;;;;;;;52.08;38.30;;;17.20;99.90;;;;;;5052757;28;20045;-64
2022/09/08 04:58:34;;;;;;;51.88;39.50;;;17.50;99.90;;;;;;5046490;28;20037;-64
2022/09/08 05:01:08;;;;;;;41.38;33.72;;;17.20;99.90;;;;;;5036591;28;20509;-64
2022/09/08 05:03:34;;;;;;;45.03;35.83;;;17.30;99.90;;;;;;5036057;28;20049;-67
2022/09/08 05:06:08;;;;;;;50.53;38.08;;;17.40;99.90;;;;;;5018932;28;20071;-66
2022/09/08 05:08:34;;;;;;;;;;;17.40;99.90;;;;;;5037248;28;20039;-66
2022/09/08 05:11:00;;;;;;;78.55;43.95;;;17.30;99.90;;;;;;5035736;28;20023;-65
2022/09/08 05:13:26;;;;;;;65.93;41.72;;;17.10;99.90;;;;;;5036951;28;20478;-65
2022/09/08 05:15:52;;;;;;;62.33;42.65;;;17.20;99.90;;;;;;5036813;28;20128;-66
2022/09/08 05:18:17;;;;;;;52.42;37.47;;;17.20;99.90;;;;;;5035861;28;20041;-66
2022/09/08 05:20:43;;;;;;;93.97;49.05;;;17.10;99.90;;;;;;5036801;28;20339;-65
2022/09/08 05:23:09;;;;;;;53.15;39.08;;;17.20;99.90;;;;;;5018658;28;20060;-63
2022/09/08 05:25:34;;;;;;;57.95;42.08;;;17.20;99.90;;;;;;5018707;28;20060;-65
2022/09/08 05:28:00;;;;;;;63.45;42.30;;;17.30;99.90;;;;;;5019214;28;20041;-67
2022/09/08 05:30:26;;;;;;;61.92;41.58;;;17.10;99.90;;;;;;5035721;28;20095;-68
2022/09/08 05:32:51;;;;;;;74.57;46.53;;;17.10;99.90;;;;;;5019378;28;20088;-70
2022/09/08 05:35:17;;;;;;;66.90;43.60;;;17.30;99.90;;;;;;5019442;28;20057;-70
2022/09/08 05:37:42;;;;;;;74.22;45.35;;;17.30;99.90;;;;;;5017817;28;20103;-66
2022/09/08 05:40:08;;;;;;;57.25;44.80;;;17.10;99.90;;;;;;5036722;28;20055;-66
2022/09/08 05:42:34;;;;;;;70.10;46.35;;;17.30;99.90;;;;;;5035630;28;20041;-67
2022/09/08 05:45:00;;;;;;;66.13;43.42;;;17.30;99.90;;;;;;5036588;28;20060;-65
2022/09/08 05:47:25;;;;;;;59.97;45.45;;;17.30;99.90;;;;;;5036377;28;20055;-64
2022/09/08 05:49:51;;;;;;;89.05;50.17;;;17.30;99.90;;;;;;5017868;28;20324;-66
2022/09/08 05:52:17;;;;;;;65.20;46.55;;;17.10;99.90;;;;;;5036379;28;20049;-66
2022/09/08 05:54:43;;;;;;;65.07;44.92;;;17.10;99.90;;;;;;5036519;28;20049;-65
2022/09/08 05:57:08;;;;;;;58.00;42.13;;;17.20;99.90;;;;;;5035326;28;20049;-66
2022/09/08 05:59:34;;;;;;;81.05;50.70;;;17.20;99.90;;;;;;5036117;28;20124;-65
2022/09/08 06:02:00;;;;;;;70.93;46.83;;;17.30;99.90;;;;;;5035336;28;20052;-65
2022/09/08 06:04:25;;;;;;;55.75;41.42;;;17.00;99.90;;;;;;5019162;28;20041;-66
2022/09/08 06:06:51;;;;;;;70.95;47.30;;;17.20;99.90;;;;;;5019113;28;20049;-64
2022/09/08 06:09:16;;;;;;;64.68;46.35;;;17.10;99.90;;;;;;5035192;28;20045;-65
2022/09/08 06:11:42;;;;;;;57.45;43.35;;;17.20;99.90;;;;;;5018965;28;20396;-63
2022/09/08 06:14:10;;;;;;;79.32;46.95;;;17.10;99.90;;;;;;5035180;28;20329;-68
2022/09/08 06:16:35;;;;;;;83.78;50.38;;;17.30;99.90;;;;;;5036318;28;20043;-65
2022/09/08 06:19:01;;;;;;;73.85;50.03;;;17.30;99.90;;;;;;5022496;28;20128;-64
2022/09/08 06:21:29;;;;;;;67.07;49.35;;;17.20;99.90;;;;;;5038748;28;20111;-64
2022/09/08 06:23:58;;;;;;;59.25;45.47;;;17.00;99.90;;;;;;5039474;28;20376;-64
2022/09/08 06:26:52;;;;;;;65.82;50.20;;;17.10;99.90;;;;;;5019431;28;20061;-65
2022/09/08 06:29:34;;;;;;;80.53;57.87;;;17.10;99.90;;;;;;5036694;28;20045;-66
2022/09/08 06:32:11;;;;;;;98.32;60.30;;;17.10;99.90;;;;;;5037020;28;20296;-65
2022/09/08 06:34:46;;;;;;;80.50;55.65;;;17.10;99.90;;;;;;5036542;28;20049;-65
2022/09/08 06:37:38;;;;;;;71.63;51.90;;;17.00;99.90;;;;;;5036828;28;20044;-63
2022/09/08 06:40:20;;;;;;;71.50;50.60;;;17.20;99.90;;;;;;5036545;28;20041;-66
2022/09/08 06:42:59;;;;;;;69.35;50.65;;;17.00;99.90;;;;;;5019534;28;20050;-65
2022/09/08 06:45:33;;;;;;;82.40;54.55;;;17.10;99.90;;;;;;5027919;28;20038;-66
2022/09/08 06:48:15;;;;;;;73.80;49.33;;;17.00;99.90;;;;;;5036603;28;20089;-64
2022/09/08 06:51:22;;;;;;;58.85;41.67;;;17.00;99.90;;;;;;5036344;28;20064;-63
2022/09/08 06:54:08;;;;;;;80.65;45.22;;;17.20;99.90;;;;;;5009047;28;20050;-65
2022/09/08 06:57:01;;;;;;;120.50;50.22;;;16.80;99.90;;;;;;5036368;28;20410;-66
2022/09/08 06:59:32;;;;;;;63.72;34.28;;;16.60;99.90;;;;;;5018619;28;20324;-65
2022/09/08 07:02:07;;;;;;;85.28;41.45;;;16.70;99.90;;;;;;5036753;28;20068;-66
2022/09/08 07:04:35;;;;;;;96.25;39.50;;;16.50;99.90;;;;;;5035300;28;20052;-66
2022/09/08 07:07:07;;;;;;;62.55;35.08;;;16.70;99.90;;;;;;5019006;28;20103;-67
2022/09/08 07:09:42;;;;;;;22.63;16.95;;;16.90;99.90;;;;;;5036492;28;20045;-65
2022/09/08 07:12:20;;;;;;;30.77;19.35;;;16.40;99.90;;;;;;5035988;28;20061;-64
2022/09/08 07:14:49;;;;;;;48.50;21.08;;;16.00;99.90;;;;;;5035955;28;20426;-65
2022/09/08 07:17:17;;;;;;;45.60;24.23;;;15.90;99.90;;;;;;5035815;28;20441;-65
2022/09/08 07:19:54;;;;;;;89.63;32.80;;;15.90;99.90;;;;;;5009021;28;20081;-68
2022/09/08 07:22:31;;;;;;;142.00;37.10;;;16.20;99.90;;;;;;5035921;28;20041;-65
2022/09/08 07:25:08;;;;;;;36.58;19.15;;;15.90;99.90;;;;;;5041129;28;20100;-65
2022/09/08 07:27:36;;;;;;;49.58;23.70;;;16.00;99.90;;;;;;5036597;28;20078;-65
2022/09/08 07:30:04;;;;;;;31.35;15.05;;;15.90;99.90;;;;;;5047337;28;20427;-66
2022/09/08 07:32:35;;;;;;;50.78;23.13;;;16.10;99.90;;;;;;5038561;28;20052;-65
2022/09/08 07:35:05;;;;;;;68.10;23.55;;;15.90;99.90;;;;;;5037228;28;20037;-64
2022/09/08 07:37:42;;;;;;;73.63;25.10;;;15.70;99.90;;;;;;5036634;28;20041;-64
2022/09/08 07:40:18;;;;;;;41.65;21.42;;;16.20;99.90;;;;;;5052635;28;20094;-64
2022/09/08 07:42:56;;;;;;;45.83;22.63;;;16.30;99.90;;;;;;5053038;28;20053;-65
2022/09/08 07:45:33;;;;;;;18.13;11.95;;;16.30;99.90;;;;;;5045453;28;20033;-67
2022/09/08 07:48:16;;;;;;;16.27;10.93;;;16.20;99.90;;;;;;5020849;28;20126;-64
2022/09/08 07:50:55;;;;;;;21.17;12.50;;;16.10;99.90;;;;;;5020504;28;20522;-65
2022/09/08 07:53:59;;;;;;;25.65;15.13;;;15.80;99.90;;;;;;5038288;28;20049;-64
2022/09/08 07:56:34;;;;;;;31.20;15.63;;;16.00;99.90;;;;;;5020872;28;20394;-66
2022/09/08 07:59:14;;;;;;;22.15;14.10;;;16.10;99.90;;;;;;5037010;28;20041;-67
2022/09/08 08:02:01;;;;;;;71.05;22.08;;;16.20;99.90;;;;;;5047414;28;20092;-65
2022/09/08 08:04:38;;;;;;;107.35;27.92;;;15.90;99.90;;;;;;5037968;28;20383;-67
2022/09/08 08:07:12;;;;;;;69.40;20.88;;;16.20;99.90;;;;;;5037834;28;20048;-66
2022/09/08 08:09:52;;;;;;;37.35;15.77;;;16.30;99.90;;;;;;5018944;28;20049;-66
2022/09/08 08:12:29;;;;;;;18.90;10.85;;;16.20;99.90;;;;;;5026846;28;20041;-67
2022/09/08 08:15:06;;;;;;;9.18;6.72;;;16.30;99.90;;;;;;5052271;28;20052;-66
2022/09/08 08:17:57;;;;;;;12.45;7.78;;;15.60;99.90;;;;;;5052014;28;20131;-64
2022/09/08 08:20:48;;;;;;;48.00;15.02;;;15.60;99.90;;;;;;5052067;28;20062;-67
2022/09/08 08:23:39;;;;;;;31.33;12.05;;;15.70;99.90;;;;;;5052279;28;20049;-65
2022/09/08 08:26:23;;;;;;;9.43;5.90;;;16.10;99.90;;;;;;5028562;28;20057;-68
2022/09/08 08:28:57;;;;;;;19.10;9.67;;;16.20;99.90;;;;;;5043924;28;20052;-67
2022/09/08 08:31:38;;;;;;;30.73;12.18;;;15.80;99.90;;;;;;5034565;28;20455;-65
2022/09/08 08:34:10;;;;;;;70.05;15.70;;;16.00;99.90;;;;;;5051744;28;20076;-66
2022/09/08 08:36:41;;;;;;;27.50;11.55;;;15.80;99.90;;;;;;5053109;28;20049;-65
2022/09/08 08:39:22;;;;;;;39.95;11.98;;;15.80;99.90;;;;;;5049719;28;20409;-66
2022/09/08 08:42:17;;;;;;;31.60;10.48;;;16.00;99.90;;;;;;5049513;28;20040;-65
2022/09/08 08:44:51;;;;;;;38.95;12.00;;;16.30;99.90;;;;;;5051501;28;20455;-67
2022/09/08 08:47:44;;;;;;;20.83;9.05;;;16.20;99.90;;;;;;5051536;28;20486;-66
2022/09/08 08:50:22;;;;;;;23.48;10.60;;;16.00;99.90;;;;;;5052697;28;20041;-65
2022/09/08 08:53:26;;;;;;;26.77;10.55;;;16.30;99.90;;;;;;5043757;28;20045;-66
2022/09/08 08:55:59;;;;;;;47.50;13.40;;;15.80;99.90;;;;;;5007777;28;20068;-66
2022/09/08 08:58:37;;;;;;;37.47;11.63;;;16.30;99.90;;;;;;5036881;28;20049;-65
2022/09/08 09:01:21;;;;;;;52.13;15.75;;;15.90;99.90;;;;;;5049314;28;20451;-65
2022/09/08 09:04:18;;;;;;;36.45;13.77;;;16.30;99.90;;;;;;5033922;28;20056;-67
2022/09/08 09:06:57;;;;;;;49.85;14.70;;;16.20;99.90;;;;;;5045929;28;20045;-64
2022/09/08 09:09:54;;;;;;;29.38;12.15;;;15.90;99.90;;;;;;5044063;28;20077;-66
2022/09/08 09:12:45;;;;;;;21.45;10.70;;;15.90;99.90;;;;;;5026112;28;20351;-66
2022/09/08 09:15:38;;;;;;;16.48;10.30;;;16.10;99.90;;;;;;5035150;28;20048;-65
2022/09/08 09:18:04;;;;;;;16.42;9.68;;;16.00;99.90;;;;;;5046310;28;20107;-65
2022/09/08 09:21:06;;;;;;;47.78;15.93;;;16.40;99.90;;;;;;5036976;28;20049;-66
2022/09/08 09:23:52;;;;;;;12.90;7.65;;;16.40;99.90;;;;;;4956308;28;20046;-65
2022/09/08 09:26:20;;;;;;;10.55;7.13;;;16.10;99.90;;;;;;5028977;28;20060;-67
2022/09/08 09:28:54;;;;;;;23.17;9.88;;;16.00;99.90;;;;;;5034239;28;20064;-65
2022/09/08 09:31:38;;;;;;;17.40;9.98;;;16.50;99.90;;;;;;5034020;28;20139;-66
2022/09/08 09:34:15;;;;;;;23.00;11.45;;;16.00;99.90;;;;;;5034088;28;20034;-65
2022/09/08 09:36:41;;;;;;;12.45;7.63;;;16.10;99.90;;;;;;5033885;28;20069;-65
2022/09/08 09:39:56;;;;;;;9.75;7.50;;;16.50;99.90;;;;;;5034195;28;20088;-66
2022/09/08 09:43:00;;;;;;;11.30;8.30;;;16.50;99.90;;;;;;4995882;28;20049;-66
2022/09/08 09:45:44;;;;;;;10.30;7.75;;;16.10;99.90;;;;;;5025572;28;20050;-65
2022/09/08 09:48:38;;;;;;;15.70;9.10;;;16.10;99.90;;;;;;5033562;28;20379;-66
2022/09/08 09:51:35;;;;;;;9.52;6.90;;;16.10;99.90;;;;;;5034061;28;20037;-65
2022/09/08 09:54:24;;;;;;;11.68;8.68;;;16.20;99.90;;;;;;5020232;28;20049;-64
2022/09/08 09:57:14;;;;;;;8.65;6.47;;;15.90;99.90;;;;;;5020382;28;20045;-66
2022/09/08 10:00:17;;;;;;;11.85;7.40;;;15.90;99.90;;;;;;5023521;28;20129;-66
2022/09/08 10:02:52;;;;;;;9.63;6.80;;;16.30;99.90;;;;;;5037496;28;20041;-64
2022/09/08 10:05:57;;;;;;;12.38;6.50;;;16.20;99.90;;;;;;5037646;28;20059;-66
2022/09/08 10:08:41;;;;;;;8.05;6.75;;;15.80;99.90;;;;;;5037248;28;20068;-66
2022/09/08 10:11:38;;;;;;;9.05;6.07;;;16.00;99.90;;;;;;5037397;28;20045;-66
2022/09/08 10:14:03;;;;;;;8.13;6.63;;;15.60;99.90;;;;;;4947343;28;20056;-65
2022/09/08 10:16:53;;;;;;;8.57;6.53;;;15.70;99.90;;;;;;5019772;28;20048;-65
2022/09/08 10:19:36;;;;;;;9.27;7.25;;;15.70;99.90;;;;;;5037094;28;20037;-65
2022/09/08 10:22:20;;;;;;;9.82;6.90;;;16.20;99.90;;;;;;5037332;28;20120;-65
2022/09/08 10:25:10;;;;;;;17.23;7.78;;;16.10;99.90;;;;;;5041037;28;20056;-65
2022/09/08 10:28:08;;;;;;;10.82;7.47;;;16.30;99.90;;;;;;5048374;28;20081;-66
2022/09/08 10:31:01;;;;;;;10.27;7.70;;;16.20;99.90;;;;;;5022031;28;20044;-65
2022/09/08 10:33:50;;;;;;;11.43;8.48;;;15.70;99.90;;;;;;5047265;28;20074;-63
2022/09/08 10:36:15;;;;;;;13.32;8.55;;;16.00;99.90;;;;;;5030283;28;20102;-64
2022/09/08 10:38:52;;;;;;;16.08;8.98;;;15.70;99.90;;;;;;5026031;28;20461;-63
2022/09/08 10:41:23;;;;;;;11.48;7.85;;;15.90;99.90;;;;;;5041328;28;20116;-63
2022/09/08 10:44:10;;;;;;;10.93;7.80;;;16.20;99.90;;;;;;5047557;28;20056;-66
2022/09/08 10:46:54;;;;;;;10.70;7.05;;;16.20;99.90;;;;;;5050965;28;20368;-66
2022/09/08 10:49:55;;;;;;;11.38;7.35;;;15.80;99.90;;;;;;5023608;28;20353;-65
2022/09/08 10:52:26;;;;;;;11.10;7.88;;;16.20;99.90;;;;;;5052840;28;20048;-65
2022/09/08 10:55:04;;;;;;;10.50;7.70;;;16.10;99.90;;;;;;5043566;28;20045;-64
2022/09/08 10:58:03;;;;;;;12.85;7.80;;;16.00;99.90;;;;;;5038461;28;20053;-66
2022/09/08 11:01:06;;;;;;;10.32;6.05;;;16.10;99.90;;;;;;5014534;28;20048;-66
2022/09/08 11:03:47;;;;;;;9.43;6.20;;;15.70;99.90;;;;;;5036525;28;20357;-64
2022/09/08 11:06:36;;;;;;;8.27;5.13;;;15.90;99.90;;;;;;5055349;28;20119;-69
2022/09/08 11:09:44;;;;;;;8.68;6.07;;;15.70;99.90;;;;;;5036110;28;20094;-66
2022/09/08 11:12:43;;;;;;;11.65;7.18;;;15.70;99.90;;;;;;5048373;28;20345;-65
2022/09/08 11:15:27;;;;;;;11.82;6.32;;;15.80;99.90;;;;;;5048052;28;20456;-65
2022/09/08 11:18:07;;;;;;;9.68;5.85;;;16.00;99.90;;;;;;5038799;28;20037;-65
2022/09/08 11:20:50;;;;;;;11.13;6.70;;;15.90;99.90;;;;;;5038735;28;20359;-65
2022/09/08 11:23:36;;;;;;;8.77;6.60;;;16.40;99.90;;;;;;5045885;28;20049;-64
2022/09/08 11:26:07;;;;;;;7.00;5.72;;;16.00;99.90;;;;;;5047068;28;20060;-64
2022/09/08 11:28:51;;;;;;;6.22;5.47;;;16.10;99.90;;;;;;5054229;28;20036;-65
2022/09/08 11:31:43;;;;;;;9.80;5.90;;;16.00;99.90;;;;;;5035506;28;20056;-63
2022/09/08 11:34:31;;;;;;;8.68;7.18;;;15.90;99.90;;;;;;5052965;28;20102;-67
2022/09/08 11:37:41;;;;;;;11.90;7.95;;;16.60;99.90;;;;;;5052715;28;20511;-66
2022/09/08 11:40:37;;;;;;;11.60;8.40;;;16.60;99.90;;;;;;5052824;28;20056;-66
2022/09/08 11:43:13;;;;;;;18.60;9.95;;;16.50;99.90;;;;;;5052785;28;20096;-65
2022/09/08 11:45:57;;;;;;;15.70;10.70;;;16.30;99.90;;;;;;5054365;28;20076;-64
2022/09/08 11:48:54;;;;;;;16.17;10.57;;;16.70;99.90;;;;;;5054232;28;20057;-64
2022/09/08 11:51:45;;;;;;;11.48;10.13;;;16.30;99.90;;;;;;5044783;28;20056;-64
2022/09/08 11:54:10;;;;;;;15.93;10.90;;;16.80;99.90;;;;;;5047709;28;20037;-66
2022/09/08 11:56:47;;;;;;;15.25;10.98;;;16.60;99.90;;;;;;5038083;28;20355;-65
2022/09/08 11:59:29;;;;;;;15.00;11.25;;;16.70;99.90;;;;;;5037154;28;20373;-65
2022/09/08 12:02:08;;;;;;;16.85;11.25;;;16.50;99.90;;;;;;5027577;28;20053;-68
2022/09/08 12:04:54;;;;;;;20.35;11.85;;;16.90;99.90;;;;;;5052816;28;20060;-64
2022/09/08 12:07:56;;;;;;;15.48;11.55;;;16.60;99.90;;;;;;5051959;28;20439;-64
2022/09/08 12:10:27;;;;;;;18.88;11.07;;;16.70;99.90;;;;;;5052057;28;20033;-63
2022/09/08 12:13:09;;;;;;;17.33;11.35;;;17.00;99.90;;;;;;5052315;28;20063;-68
2022/09/08 12:16:12;;;;;;;17.35;11.30;;;16.70;99.90;;;;;;5053566;28;20044;-68
2022/09/08 12:18:43;;;;;;;16.52;12.25;;;16.70;99.90;;;;;;5053830;28;20459;-64
2022/09/08 12:21:36;;;;;;;22.17;12.80;;;17.20;99.90;;;;;;5047180;28;20049;-65
2022/09/08 12:24:35;;;;;;;13.73;10.70;;;17.30;99.90;;;;;;5037912;28;20045;-67
2022/09/08 12:27:20;;;;;;;14.73;10.80;;;16.80;99.90;;;;;;5052210;28;20423;-66
2022/09/08 12:30:21;;;;;;;16.27;11.38;;;16.70;99.90;;;;;;5051939;28;20044;-66
2022/09/08 12:33:13;;;;;;;19.73;11.68;;;17.30;99.90;;;;;;5051672;28;20455;-65
2022/09/08 12:35:43;;;;;;;20.45;12.93;;;16.80;99.90;;;;;;5051840;28;20045;-64
2022/09/08 12:38:43;;;;;;;17.20;11.55;;;17.50;99.90;;;;;;5019099;28;20049;-64
2022/09/08 12:41:08;;;;;;;17.55;12.70;;;17.40;99.90;;;;;;5053091;28;20080;-66
2022/09/08 12:43:41;;;;;;;20.23;14.10;;;17.10;99.90;;;;;;5051890;28;20416;-65
2022/09/08 12:46:37;;;;;;;17.80;14.55;;;17.50;99.90;;;;;;5051703;28;20068;-65
2022/09/08 12:49:28;;;;;;;23.98;15.80;;;17.00;99.90;;;;;;5051546;28;20037;-66
2022/09/08 12:52:00;;;;;;;23.48;15.50;;;17.00;99.90;;;;;;5034114;28;20138;-67
2022/09/08 12:54:52;;;;;;;24.50;16.42;;;17.40;99.90;;;;;;5053278;28;20059;-67
2022/09/08 12:57:32;;;;;;;23.88;17.55;;;17.50;99.90;;;;;;5052931;28;20143;-69
2022/09/08 13:00:11;;;;;;;49.45;23.08;;;17.50;99.90;;;;;;5051506;28;20045;-64
2022/09/08 13:02:54;;;;;;;84.07;28.85;;;17.30;99.90;;;;;;5051683;28;20126;-65
2022/09/08 13:06:02;;;;;;;95.47;32.25;;;17.30;99.90;;;;;;5033653;28;20120;-64
2022/09/08 13:08:55;;;;;;;33.60;21.85;;;17.70;99.90;;;;;;4981772;28;20057;-70
2022/09/08 13:12:00;;;;;;;57.70;27.75;;;18.10;99.90;;;;;;5037127;28;20045;-66
2022/09/08 13:15:05;;;;;;;29.92;21.23;;;17.90;99.90;;;;;;5036963;28;20060;-67
2022/09/08 13:17:44;;;;;;;40.85;25.25;;;18.60;99.90;;;;;;5037007;28;20077;-65
2022/09/08 13:20:38;;;;;;;51.78;27.75;;;18.40;99.90;;;;;;5018212;28;20375;-64